Time;durP1;ratioP1;P1;durP2;ratioP2;P2;SDS_P1;SDS_P2;PMS_P1;PMS_P2;Temp;Humidity;BMP_temperature;BMP_pressure;BME280_temperature;BME280_humidity;BME280_pressure;Samples;Min_cycle;Max_cycle;Signal;HPM_P1;HPM_P2
2023/07/29 00:00:07;;;;;;;4.38;3.25;;;;;;;23.77;55.11;100818.41;5025361;28;20445;-34
2023/07/29 00:02:34;;;;;;;5.13;3.45;;;;;;;23.76;55.65;100808.59;5026549;28;20529;-35
2023/07/29 00:05:00;;;;;;;5.63;3.25;;;;;;;23.76;55.64;100805.88;5032205;28;20062;-36
2023/07/29 00:07:27;;;;;;;4.95;3.40;;;;;;;23.75;55.36;100801.50;5033163;28;20131;-34
2023/07/29 00:09:53;;;;;;;5.07;3.13;;;;;;;23.75;55.40;100804.22;5030011;28;20163;-34
2023/07/29 00:12:20;;;;;;;5.70;3.30;;;;;;;23.74;55.10;100797.97;5031204;28;20146;-35
2023/07/29 00:14:47;;;;;;;4.90;3.08;;;;;;;23.73;55.66;100790.06;5031793;28;20084;-34
2023/07/29 00:17:13;;;;;;;4.63;2.83;;;;;;;23.73;55.53;100790.06;5030690;28;20049;-34
2023/07/29 00:19:40;;;;;;;3.78;3.13;;;;;;;23.71;55.91;100790.22;5030550;28;20127;-35
2023/07/29 00:22:08;;;;;;;4.68;3.13;;;;;;;23.71;55.71;100792.09;5030658;28;20099;-35
2023/07/29 00:24:35;;;;;;;4.43;3.20;;;;;;;23.70;55.01;100801.25;5027929;28;20053;-35
2023/07/29 00:27:01;;;;;;;4.72;3.30;;;;;;;23.69;55.41;100795.00;5032135;28;20049;-35
2023/07/29 00:29:28;;;;;;;3.88;3.00;;;;;;;23.69;55.76;100794.19;5027807;28;20052;-35
2023/07/29 00:31:54;;;;;;;5.30;2.88;;;;;;;23.68;55.22;100789.78;5026174;28;20092;-34
2023/07/29 00:34:21;;;;;;;4.10;2.70;;;;;;;23.67;55.39;100788.09;5029406;28;20139;-35
2023/07/29 00:36:47;;;;;;;4.90;3.28;;;;;;;23.66;55.23;100783.72;5029623;28;20128;-34
2023/07/29 00:39:14;;;;;;;4.65;3.28;;;;;;;23.66;55.47;100781.03;5033827;28;20050;-34
2023/07/29 00:41:41;;;;;;;4.32;2.83;;;;;;;23.64;55.86;100784.75;5029713;28;20054;-34
2023/07/29 00:44:08;;;;;;;4.53;3.10;;;;;;;23.63;55.82;100780.34;5028953;28;20083;-34
2023/07/29 00:46:37;;;;;;;4.18;2.75;;;;;;;23.62;55.20;100778.66;5031616;28;20079;-34
2023/07/29 00:49:04;;;;;;;3.60;2.67;;;;;;;23.62;55.42;100783.25;5030664;28;20056;-34
2023/07/29 00:51:31;;;;;;;3.63;2.65;;;;;;;23.60;55.62;100778.03;5029362;28;20053;-34
2023/07/29 00:53:58;;;;;;;4.30;2.90;;;;;;;23.59;55.39;100768.22;5029327;28;20136;-35
2023/07/29 00:56:24;;;;;;;4.05;2.67;;;;;;;23.58;55.34;100771.13;5031339;28;20127;-34
2023/07/29 00:58:56;;;;;;;4.75;2.80;;;;;;;23.57;55.56;100770.28;5031575;28;20046;-34
2023/07/29 01:01:23;;;;;;;3.28;2.45;;;;;;;23.56;55.71;100771.34;5029884;28;20099;-35
2023/07/29 01:03:49;;;;;;;5.45;2.80;;;;;;;23.56;55.23;100765.09;5024880;28;20052;-35
2023/07/29 01:06:27;;;;;;;4.55;2.63;;;;;;;23.53;55.90;100762.75;5030999;28;20107;-35
2023/07/29 01:09:04;;;;;;;3.10;2.45;;;;;;;23.52;55.49;100770.03;5026540;28;20131;-34
2023/07/29 01:11:41;;;;;;;3.60;2.67;;;;;;;23.52;55.44;100770.03;5026374;28;21381;-35
2023/07/29 01:14:25;;;;;;;3.80;2.63;;;;;;;23.50;56.10;100771.25;5028496;28;20129;-35
2023/07/29 01:17:00;;;;;;;3.03;2.30;;;;;;;23.49;55.80;100767.72;5026179;28;20092;-35
2023/07/29 01:19:33;;;;;;;3.92;2.40;;;;;;;23.48;55.62;100760.63;5028641;28;20084;-34
2023/07/29 01:22:01;;;;;;;3.00;2.15;;;;;;;23.47;55.70;100761.63;5027156;28;20381;-35
2023/07/29 01:24:28;;;;;;;3.30;2.25;;;;;;;23.48;55.93;100765.19;5029418;28;20077;-35
2023/07/29 01:26:54;;;;;;;3.08;2.20;;;;;;;23.46;55.57;100751.03;5028558;28;20049;-34
2023/07/29 01:29:21;;;;;;;2.90;2.50;;;;;;;23.44;55.84;100751.22;5031248;28;20124;-36
2023/07/29 01:31:54;;;;;;;3.03;2.40;;;;;;;23.43;55.36;100746.00;5027715;28;20237;-35
2023/07/29 01:34:28;;;;;;;4.97;2.45;;;;;;;23.43;55.48;100754.09;5028123;28;20170;-34
2023/07/29 01:36:58;;;;;;;3.47;2.42;;;;;;;23.41;55.98;100754.31;5028700;28;20049;-34
2023/07/29 01:39:32;;;;;;;3.70;2.63;;;;;;;23.42;55.43;100752.44;5029394;28;20045;-35
2023/07/29 01:41:59;;;;;;;3.67;2.30;;;;;;;23.41;55.37;100748.91;5029926;28;20403;-35
2023/07/29 01:44:26;;;;;;;3.63;2.45;;;;;;;23.39;55.76;100748.25;5029568;28;20111;-35
2023/07/29 01:46:57;;;;;;;3.20;2.20;;;;;;;23.38;56.11;100744.69;5025908;28;20056;-34
2023/07/29 01:49:24;;;;;;;4.47;2.30;;;;;;;23.38;55.58;100747.41;5028235;28;20099;-34
2023/07/29 01:51:51;;;;;;;3.90;2.53;;;;;;;23.37;55.42;100748.44;5029658;28;20111;-35
2023/07/29 01:54:17;;;;;;;3.13;2.20;;;;;;;23.36;55.98;100756.75;5031696;28;20080;-35
2023/07/29 01:56:44;;;;;;;3.95;2.75;;;;;;;23.35;56.19;100746.94;5032807;28;20127;-35
2023/07/29 01:59:13;;;;;;;4.55;2.35;;;;;;;23.35;55.78;100752.34;5028385;28;20681;-35
2023/07/29 02:01:39;;;;;;;3.92;2.25;;;;;;;23.33;55.51;100741.75;5034928;28;20053;-35
2023/07/29 02:04:06;;;;;;;5.43;2.53;;;;;;;23.33;55.95;100736.31;5034045;28;20045;-35
2023/07/29 02:06:33;;;;;;;3.53;2.30;;;;;;;23.32;55.90;100747.34;5033749;28;20099;-34
2023/07/29 02:09:00;;;;;;;3.47;1.92;;;;;;;23.31;55.71;100730.25;5033238;28;20053;-34
2023/07/29 02:11:27;;;;;;;3.85;2.25;;;;;;;23.31;55.51;100737.53;5035778;28;20484;-34
2023/07/29 02:13:54;;;;;;;2.22;1.85;;;;;;;23.30;55.73;100730.47;5033508;28;20049;-36
2023/07/29 02:16:22;;;;;;;3.40;2.50;;;;;;;23.30;55.93;100736.69;5032454;28;20041;-34
2023/07/29 02:18:52;;;;;;;4.15;2.03;;;;;;;23.29;56.02;100734.19;5033597;28;20431;-37
2023/07/29 02:21:21;;;;;;;3.92;2.17;;;;;;;23.29;55.52;100723.38;5036066;28;20060;-34
2023/07/29 02:23:48;;;;;;;3.22;2.05;;;;;;;23.28;55.81;100729.81;5035330;28;20049;-34
2023/07/29 02:26:16;;;;;;;3.22;1.88;;;;;;;23.29;56.03;100731.50;5037213;28;20045;-36
2023/07/29 02:28:42;;;;;;;3.20;2.00;;;;;;;23.27;56.04;100734.38;5035266;28;20076;-34
2023/07/29 02:31:14;;;;;;;3.60;1.92;;;;;;;23.27;56.25;100728.13;5037539;28;20091;-35
2023/07/29 02:33:40;;;;;;;2.60;1.88;;;;;;;23.26;55.73;100723.75;5033842;28;20393;-35
2023/07/29 02:36:07;;;;;;;3.03;2.13;;;;;;;23.25;56.27;100727.50;5039084;28;20057;-34
2023/07/29 02:38:34;;;;;;;3.60;2.17;;;;;;;23.25;55.61;100724.78;5033032;28;20081;-34
2023/07/29 02:41:00;;;;;;;2.72;1.98;;;;;;;23.24;56.02;100733.94;5031859;28;20080;-35
2023/07/29 02:43:27;;;;;;;2.78;2.00;;;;;;;23.23;55.96;100716.03;5031499;28;20139;-35
2023/07/29 02:45:53;;;;;;;2.63;2.08;;;;;;;23.22;55.90;100719.75;5032967;28;20132;-37
2023/07/29 02:48:20;;;;;;;2.95;1.80;;;;;;;23.21;56.02;100720.78;5031671;28;20046;-36
2023/07/29 02:50:47;;;;;;;3.05;1.80;;;;;;;23.21;55.98;100720.78;5030828;28;20131;-34
2023/07/29 02:53:13;;;;;;;3.05;1.85;;;;;;;23.20;56.24;100714.56;5029711;28;20073;-34
2023/07/29 02:55:40;;;;;;;3.30;2.20;;;;;;;23.20;56.02;100716.44;5032827;28;20046;-34
2023/07/29 02:58:07;;;;;;;3.05;1.73;;;;;;;23.18;56.00;100708.50;5031564;28;20050;-33
2023/07/29 03:00:34;;;;;;;2.22;1.67;;;;;;;23.19;56.03;100707.44;5030710;28;20521;-34
2023/07/29 03:03:00;;;;;;;4.53;1.73;;;;;;;23.19;56.50;100714.72;5031285;28;20056;-34
2023/07/29 03:05:28;;;;;;;3.10;1.83;;;;;;;23.17;56.51;100703.28;5031084;28;20056;-34
2023/07/29 03:07:54;;;;;;;3.35;1.75;;;;;;;23.15;56.28;100701.59;5032258;28;20442;-33
2023/07/29 03:10:22;;;;;;;3.38;1.75;;;;;;;23.15;56.42;100696.19;5031609;28;20115;-34
2023/07/29 03:12:48;;;;;;;4.25;1.85;;;;;;;23.15;56.32;100700.75;5029034;28;20096;-35
2023/07/29 03:15:15;;;;;;;2.97;2.00;;;;;;;23.16;56.14;100702.44;5032534;28;20128;-33
2023/07/29 03:17:42;;;;;;;2.90;1.70;;;;;;;23.14;56.00;100705.31;5031229;28;20049;-33
2023/07/29 03:20:08;;;;;;;4.18;2.05;;;;;;;23.14;56.42;100704.50;5030361;28;20060;-34
2023/07/29 03:22:35;;;;;;;3.38;1.90;;;;;;;23.14;56.52;100702.63;5029677;28;20325;-34
2023/07/29 03:25:02;;;;;;;3.28;1.55;;;;;;;23.12;55.91;100696.59;5030968;28;20135;-34
2023/07/29 03:27:28;;;;;;;2.22;1.50;;;;;;;23.12;55.98;100703.84;5025479;28;20126;-33
2023/07/29 03:29:55;;;;;;;2.45;1.65;;;;;;;23.12;56.20;100701.16;5036083;28;20096;-34
2023/07/29 03:32:21;;;;;;;1.63;1.33;;;;;;;23.10;56.04;100708.59;5031178;28;20073;-34
2023/07/29 03:34:48;;;;;;;2.33;1.42;;;;;;;23.11;56.20;100700.28;5036379;28;20053;-34
2023/07/29 03:37:14;;;;;;;2.15;1.58;;;;;;;23.09;56.56;100696.97;5030054;28;20050;-34
2023/07/29 03:39:41;;;;;;;2.08;1.50;;;;;;;23.09;56.31;100707.78;5030044;28;20121;-34
2023/07/29 03:42:08;;;;;;;3.22;1.92;;;;;;;23.09;56.24;100717.75;5034126;28;20049;-33
2023/07/29 03:44:35;;;;;;;1.95;1.63;;;;;;;23.08;56.35;100729.59;5037269;28;20052;-34
2023/07/29 03:47:02;;;;;;;3.08;1.67;;;;;;;23.07;56.46;100726.03;5033704;28;20280;-35
2023/07/29 03:49:28;;;;;;;1.90;1.20;;;;;;;23.06;55.71;100718.97;5035505;28;20422;-34
2023/07/29 03:51:55;;;;;;;2.58;1.40;;;;;;;23.06;56.34;100718.97;5030159;28;20322;-34
2023/07/29 03:54:21;;;;;;;3.33;2.03;;;;;;;23.06;56.03;100728.94;5033434;28;20119;-36
2023/07/29 03:56:48;;;;;;;2.88;1.30;;;;;;;23.04;56.60;100721.03;5030309;28;20057;-35
2023/07/29 03:59:15;;;;;;;2.95;1.58;;;;;;;23.04;56.19;100728.31;5032040;28;20073;-35
2023/07/29 04:01:41;;;;;;;2.30;1.40;;;;;;;23.02;55.94;100725.78;5030532;28;20060;-34
2023/07/29 04:04:08;;;;;;;3.65;1.63;;;;;;;23.02;56.43;100714.13;5030602;28;20047;-34
2023/07/29 04:06:35;;;;;;;1.52;1.10;;;;;;;23.02;56.39;100706.00;5032100;28;20099;-34
2023/07/29 04:09:02;;;;;;;1.67;1.42;;;;;;;23.01;56.02;100709.75;5031997;28;20073;-36
2023/07/29 04:11:29;;;;;;;2.83;1.60;;;;;;;23.00;56.25;100714.31;5032057;28;20057;-35
2023/07/29 04:13:55;;;;;;;2.40;1.73;;;;;;;23.00;55.98;100724.31;5032198;28;20422;-35
2023/07/29 04:16:22;;;;;;;1.38;1.13;;;;;;;22.99;56.39;100730.72;5030207;28;20129;-33
2023/07/29 04:18:48;;;;;;;2.22;1.35;;;;;;;22.98;56.50;100724.47;5030931;28;20061;-34
2023/07/29 04:21:15;;;;;;;2.65;1.40;;;;;;;22.99;56.06;100719.91;5032841;28;20105;-34
2023/07/29 04:23:41;;;;;;;2.38;1.40;;;;;;;22.97;56.15;100717.41;5035025;28;20045;-36
2023/07/29 04:26:08;;;;;;;3.10;1.35;;;;;;;22.97;55.97;100719.25;5031474;28;20080;-34
2023/07/29 04:28:34;;;;;;;1.55;1.20;;;;;;;22.97;56.11;100727.38;5031411;28;20061;-34
2023/07/29 04:31:01;;;;;;;2.33;1.30;;;;;;;22.95;56.04;100716.72;5033588;28;20049;-35
2023/07/29 04:33:30;;;;;;;2.22;1.27;;;;;;;22.96;55.90;100712.19;5030164;28;20041;-35
2023/07/29 04:35:59;;;;;;;1.58;1.20;;;;;;;22.95;56.35;100708.63;5029994;28;20056;-34
2023/07/29 04:38:34;;;;;;;2.00;1.30;;;;;;;22.93;56.40;100713.41;5028256;28;20045;-34
2023/07/29 04:41:01;;;;;;;4.00;1.65;;;;;;;22.94;55.83;100715.06;5029255;28;20085;-34
2023/07/29 04:43:31;;;;;;;1.70;1.30;;;;;;;22.93;56.29;100712.56;5029195;28;20041;-35
2023/07/29 04:45:57;;;;;;;1.80;1.00;;;;;;;22.93;56.10;100713.41;5029701;28;20049;-35
2023/07/29 04:48:24;;;;;;;2.47;1.33;;;;;;;22.92;56.08;100709.03;5029040;28;20084;-34
2023/07/29 04:50:51;;;;;;;2.28;1.45;;;;;;;22.92;56.16;100700.91;5026605;28;20080;-35
2023/07/29 04:53:17;;;;;;;3.22;1.52;;;;;;;22.92;56.29;100711.72;5030903;28;20111;-34
2023/07/29 04:55:44;;;;;;;1.95;1.40;;;;;;;22.91;56.40;100734.34;5032484;28;20402;-34
2023/07/29 04:58:10;;;;;;;3.38;1.50;;;;;;;22.90;56.36;100733.53;5031838;28;20065;-40
2023/07/29 05:00:37;;;;;;;2.50;1.40;;;;;;;22.90;56.51;100728.13;5029807;28;20085;-35
2023/07/29 05:03:04;;;;;;;1.52;1.27;;;;;;;22.90;56.10;100721.84;5030128;28;20073;-34
2023/07/29 05:05:30;;;;;;;2.20;1.42;;;;;;;22.92;56.44;100721.72;5032465;28;20045;-34
2023/07/29 05:07:57;;;;;;;2.05;1.35;;;;;;;22.92;56.24;100732.53;5031368;28;20357;-34
2023/07/29 05:10:23;;;;;;;3.25;1.30;;;;;;;22.92;55.81;100736.06;5031117;28;20425;-34
2023/07/29 05:12:50;;;;;;;1.83;1.30;;;;;;;22.93;56.17;100736.91;5028712;28;20069;-34
2023/07/29 05:15:18;;;;;;;3.20;1.15;;;;;;;22.92;55.96;100732.53;5033949;28;20127;-34
2023/07/29 05:17:45;;;;;;;3.20;1.17;;;;;;;22.93;56.31;100729.63;5029446;28;20057;-35
2023/07/29 05:20:11;;;;;;;3.75;1.48;;;;;;;22.93;56.07;100736.91;5032369;28;20073;-35
2023/07/29 05:22:38;;;;;;;1.95;1.25;;;;;;;22.93;56.26;100735.03;5029003;28;20037;-35
2023/07/29 05:25:05;;;;;;;2.67;1.40;;;;;;;22.93;56.25;100732.31;5030077;28;20362;-36
2023/07/29 05:27:32;;;;;;;1.75;1.27;;;;;;;22.95;56.40;100732.13;5030423;28;20082;-34
2023/07/29 05:29:59;;;;;;;3.28;1.40;;;;;;;22.94;56.24;100741.25;5033129;28;20045;-35
2023/07/29 05:32:25;;;;;;;4.20;1.23;;;;;;;22.93;56.16;100740.44;5032138;28;20045;-34
2023/07/29 05:34:52;;;;;;;1.90;1.17;;;;;;;22.94;56.05;100730.44;5030670;28;20049;-35
2023/07/29 05:37:18;;;;;;;1.95;1.20;;;;;;;22.94;56.08;100738.56;5033099;28;20052;-34
2023/07/29 05:39:45;;;;;;;2.63;1.48;;;;;;;22.93;55.77;100728.78;5034562;28;20126;-35
2023/07/29 05:42:12;;;;;;;3.67;1.45;;;;;;;22.92;56.10;100725.25;5035293;28;20080;-34
2023/07/29 05:44:38;;;;;;;2.55;1.27;;;;;;;22.93;56.27;100732.31;5035077;28;20115;-34
2023/07/29 05:47:05;;;;;;;1.95;1.25;;;;;;;22.93;56.36;100735.03;5033259;28;20516;-34
2023/07/29 05:49:32;;;;;;;2.03;1.20;;;;;;;22.94;55.93;100736.69;5034857;28;20050;-35
2023/07/29 05:51:58;;;;;;;2.50;1.35;;;;;;;22.95;55.90;100734.81;5030866;28;20501;-34
2023/07/29 05:54:25;;;;;;;2.33;1.30;;;;;;;22.96;56.13;100739.22;5029489;28;20388;-34
2023/07/29 05:56:51;;;;;;;3.25;1.50;;;;;;;22.96;56.21;100737.34;5031601;28;20053;-35
2023/07/29 05:59:18;;;;;;;1.65;1.35;;;;;;;22.96;55.89;100726.53;5030507;28;20103;-34
2023/07/29 06:01:45;;;;;;;1.98;1.30;;;;;;;22.98;56.31;100731.75;5023775;28;20366;-36
2023/07/29 06:04:11;;;;;;;2.55;1.38;;;;;;;22.99;55.98;100723.44;5026054;28;20119;-35
2023/07/29 06:06:38;;;;;;;2.50;1.27;;;;;;;23.01;55.61;100729.50;5025442;28;20052;-35
2023/07/29 06:09:05;;;;;;;3.10;1.70;;;;;;;23.02;55.91;100730.34;5023655;28;20621;-34
2023/07/29 06:11:31;;;;;;;7.38;2.10;;;;;;;23.02;55.51;100727.63;5028488;28;20138;-34
2023/07/29 06:13:58;;;;;;;5.28;2.47;;;;;;;23.01;55.63;100729.50;5034085;28;20115;-34
2023/07/29 06:16:24;;;;;;;6.22;3.15;;;;;;;23.03;55.40;100732.00;5031372;28;20412;-34
2023/07/29 06:18:52;;;;;;;8.45;3.20;;;;;;;23.02;55.17;100738.44;5031102;28;20128;-34
2023/07/29 06:21:19;;;;;;;7.18;3.63;;;;;;;23.03;55.46;100735.53;5032932;28;20401;-34
2023/07/29 06:23:46;;;;;;;10.88;3.40;;;;;;;23.04;55.53;100744.53;5029001;28;20951;-34
2023/07/29 06:26:13;;;;;;;9.05;3.45;;;;;;;23.04;55.74;100748.06;5024818;28;20501;-34
2023/07/29 06:28:39;;;;;;;7.95;3.42;;;;;;;23.05;55.49;100749.72;5027614;28;20065;-34
2023/07/29 06:31:06;;;;;;;9.68;4.25;;;;;;;23.07;55.69;100754.94;5025535;28;20046;-35
2023/07/29 06:33:32;;;;;;;9.75;3.75;;;;;;;23.07;55.77;100755.78;5025476;28;20053;-35
2023/07/29 06:35:59;;;;;;;10.88;4.15;;;;;;;23.07;55.15;100749.53;5027916;28;20064;-36
2023/07/29 06:38:26;;;;;;;6.97;3.95;;;;;;;23.07;55.51;100747.66;5029998;28;20049;-34
2023/07/29 06:40:52;;;;;;;12.73;3.65;;;;;;;23.07;55.81;100750.38;5030383;28;20514;-34
2023/07/29 06:43:19;;;;;;;6.72;3.70;;;;;;;23.08;55.42;100756.63;5028973;28;20137;-37
2023/07/29 06:45:45;;;;;;;7.60;3.65;;;;;;;23.08;55.73;100751.22;5027799;28;20057;-37
2023/07/29 06:48:12;;;;;;;9.00;3.70;;;;;;;23.08;55.77;100752.06;5020159;28;20045;-37
2023/07/29 06:50:39;;;;;;;7.15;3.58;;;;;;;23.09;55.57;100748.31;5026063;28;20140;-36
2023/07/29 06:53:06;;;;;;;6.25;3.60;;;;;;;23.08;55.57;100752.06;5028912;28;20053;-38
2023/07/29 06:55:32;;;;;;;4.47;2.80;;;;;;;23.09;55.52;100759.13;5023792;28;20054;-34
2023/07/29 06:57:59;;;;;;;4.65;3.10;;;;;;;23.08;54.86;100752.06;5029000;28;20448;-34
2023/07/29 07:00:25;;;;;;;6.45;3.10;;;;;;;23.08;55.61;100753.94;5029908;28;20412;-34
2023/07/29 07:02:52;;;;;;;8.55;3.33;;;;;;;23.09;55.42;100756.44;5024738;28;20041;-34
2023/07/29 07:05:19;;;;;;;6.00;3.40;;;;;;;23.09;55.40;100769.94;5023754;28;20061;-35
2023/07/29 07:07:45;;;;;;;7.25;2.88;;;;;;;23.10;55.07;100765.38;5024471;28;20369;-35
2023/07/29 07:10:13;;;;;;;5.25;2.60;;;;;;;23.10;54.98;100754.56;5022371;28;20107;-34
2023/07/29 07:12:39;;;;;;;9.65;3.55;;;;;;;23.10;54.96;100755.41;5023649;28;20175;-34
2023/07/29 07:15:07;;;;;;;10.55;3.50;;;;;;;23.11;55.20;100757.06;5025761;28;20396;-35
2023/07/29 07:17:33;;;;;;;6.25;2.85;;;;;;;23.12;55.34;100755.22;5022954;28;20103;-35
2023/07/29 07:20:00;;;;;;;8.40;2.70;;;;;;;23.11;55.76;100754.34;5024290;28;20124;-34
2023/07/29 07:22:26;;;;;;;9.40;2.80;;;;;;;23.12;55.17;100758.78;5027124;28;20049;-35
2023/07/29 07:24:53;;;;;;;5.78;2.58;;;;;;;23.12;55.41;100753.34;5029577;28;20053;-34
2023/07/29 07:27:20;;;;;;;6.50;3.13;;;;;;;23.13;55.06;100757.72;5031574;28;20119;-35
2023/07/29 07:29:46;;;;;;;6.47;2.40;;;;;;;23.14;55.12;100755.84;5031640;28;20346;-35
2023/07/29 07:32:13;;;;;;;4.68;2.75;;;;;;;23.17;55.01;100757.34;5030873;28;20045;-35
2023/07/29 07:34:39;;;;;;;5.95;2.35;;;;;;;23.17;54.83;100758.19;5031012;28;20038;-35
2023/07/29 07:37:06;;;;;;;8.85;2.88;;;;;;;23.19;55.52;100760.69;5029882;28;20045;-35
2023/07/29 07:39:33;;;;;;;5.00;2.22;;;;;;;23.20;55.38;100755.13;5031729;28;20730;-34
2023/07/29 07:42:00;;;;;;;5.55;2.67;;;;;;;23.22;55.58;100755.75;5030688;28;20068;-34
2023/07/29 07:44:26;;;;;;;7.00;2.47;;;;;;;23.23;55.07;100751.19;5033492;28;20045;-34
2023/07/29 07:46:56;;;;;;;5.13;2.40;;;;;;;23.24;54.92;100756.41;5027546;28;20233;-34
2023/07/29 07:49:22;;;;;;;5.40;2.22;;;;;;;23.25;54.56;100754.53;5030986;28;20045;-34
2023/07/29 07:51:49;;;;;;;4.28;2.17;;;;;;;23.25;54.67;100758.09;5031589;28;20049;-34
2023/07/29 07:54:16;;;;;;;6.03;2.20;;;;;;;23.25;54.86;100762.66;5033130;28;20045;-35
2023/07/29 07:56:43;;;;;;;4.10;2.20;;;;;;;23.24;54.95;100766.41;5030447;28;20277;-35
2023/07/29 07:59:09;;;;;;;6.82;2.40;;;;;;;23.24;55.17;100766.41;5026211;28;20057;-35
2023/07/29 08:01:39;;;;;;;3.90;2.08;;;;;;;23.24;55.31;100772.63;5025956;28;20412;-34
2023/07/29 08:04:06;;;;;;;4.00;1.85;;;;;;;23.26;55.12;100761.63;5023902;28;20056;-36
2023/07/29 08:06:33;;;;;;;3.38;1.88;;;;;;;23.27;55.26;100766.00;5028591;28;20060;-37
2023/07/29 08:08:59;;;;;;;3.50;2.00;;;;;;;23.28;55.09;100765.81;5026466;28;20120;-37
2023/07/29 08:11:26;;;;;;;3.60;1.80;;;;;;;23.30;54.95;100765.63;5048261;28;20045;-37
2023/07/29 08:13:53;;;;;;;3.25;1.80;;;;;;;23.33;55.35;100767.94;5026514;28;20084;-37
2023/07/29 08:16:19;;;;;;;3.42;2.45;;;;;;;23.34;54.84;100770.44;5041701;28;20131;-34
2023/07/29 08:18:47;;;;;;;3.00;1.80;;;;;;;23.36;55.50;100767.56;5024262;28;20152;-33
2023/07/29 08:21:13;;;;;;;3.15;1.80;;;;;;;23.38;54.94;100768.22;5026970;28;20429;-33
2023/07/29 08:23:40;;;;;;;3.35;1.80;;;;;;;23.39;55.17;100773.41;5027401;28;20041;-34
2023/07/29 08:26:07;;;;;;;3.03;1.73;;;;;;;23.40;54.83;100774.28;5030360;28;20049;-35
2023/07/29 08:28:39;;;;;;;3.85;1.70;;;;;;;23.40;54.36;100783.22;5033119;28;20048;-34
2023/07/29 08:31:06;;;;;;;2.00;1.63;;;;;;;23.41;54.35;100784.06;5033280;28;20056;-37
2023/07/29 08:33:34;;;;;;;2.92;1.50;;;;;;;23.42;54.29;100785.72;5031772;28;20048;-37
2023/07/29 08:36:01;;;;;;;2.88;1.67;;;;;;;23.42;54.35;100785.72;5029232;28;21589;-34
2023/07/29 08:38:28;;;;;;;5.47;1.90;;;;;;;23.43;54.46;100786.56;5023007;28;20151;-35
2023/07/29 08:41:16;;;;;;;4.53;1.90;;;;;;;23.43;55.01;100782.00;5024428;28;20041;-35
2023/07/29 08:44:17;;;;;;;5.72;1.70;;;;;;;23.44;54.99;100777.41;5027986;28;22044;-35
2023/07/29 08:46:44;;;;;;;4.53;1.70;;;;;;;23.46;54.40;100778.06;5027090;28;20408;-34
2023/07/29 08:49:18;;;;;;;3.78;2.00;;;;;;;23.45;54.50;100771.81;5021310;28;20465;-34
2023/07/29 08:51:49;;;;;;;4.90;1.85;;;;;;;23.46;54.55;100778.91;5024049;28;20456;-34
2023/07/29 08:54:16;;;;;;;4.93;1.75;;;;;;;23.47;54.58;100785.16;5024489;28;20060;-34
2023/07/29 08:56:43;;;;;;;2.60;1.60;;;;;;;23.49;54.96;100783.09;5024732;28;20128;-34
2023/07/29 08:59:10;;;;;;;2.75;1.48;;;;;;;23.49;54.41;100781.25;5023774;28;20160;-35
2023/07/29 09:01:41;;;;;;;3.08;1.40;;;;;;;23.51;54.98;100783.75;5020931;28;20445;-34
2023/07/29 09:04:08;;;;;;;5.00;1.80;;;;;;;23.51;54.54;100781.88;5024441;28;20119;-34
2023/07/29 09:06:40;;;;;;;2.83;1.70;;;;;;;23.52;54.66;100783.56;5029388;28;20107;-34
2023/07/29 09:09:08;;;;;;;2.22;1.60;;;;;;;23.52;54.61;100786.28;5031493;28;20045;-35
2023/07/29 09:11:35;;;;;;;3.88;1.80;;;;;;;23.53;54.54;100787.94;5030894;28;20057;-34
2023/07/29 09:14:01;;;;;;;4.38;1.75;;;;;;;23.54;54.01;100789.63;5031149;28;20038;-34
2023/07/29 09:16:29;;;;;;;7.32;1.58;;;;;;;23.55;53.89;100782.31;5031222;28;20077;-36
2023/07/29 09:18:57;;;;;;;4.53;1.75;;;;;;;23.57;53.79;100783.81;5029589;28;20432;-37
2023/07/29 09:21:26;;;;;;;4.00;1.67;;;;;;;23.56;53.92;100787.56;5026000;28;20053;-35
2023/07/29 09:23:53;;;;;;;5.35;1.75;;;;;;;23.57;53.92;100794.66;5031238;28;20442;-37
2023/07/29 09:26:27;;;;;;;4.30;2.00;;;;;;;23.57;54.27;100797.34;5025648;28;20084;-34
2023/07/29 09:28:55;;;;;;;2.38;1.65;;;;;;;23.58;54.05;100804.44;5030040;28;20136;-38
2023/07/29 09:31:24;;;;;;;8.70;2.45;;;;;;;23.59;53.79;100797.16;5028974;28;20049;-37
2023/07/29 09:33:59;;;;;;;3.55;1.58;;;;;;;23.59;53.79;100802.56;5024005;28;20041;-37
2023/07/29 09:36:26;;;;;;;4.63;1.70;;;;;;;23.60;54.34;100796.16;5029571;28;20345;-36
2023/07/29 09:38:54;;;;;;;3.65;1.58;;;;;;;23.60;54.34;100788.84;5026836;28;20054;-37
2023/07/29 09:41:28;;;;;;;3.33;1.35;;;;;;;23.59;54.29;100795.28;5032335;28;20128;-37
2023/07/29 09:43:57;;;;;;;3.10;1.50;;;;;;;23.61;54.35;100793.22;5024841;28;20057;-36
2023/07/29 09:46:26;;;;;;;5.55;1.38;;;;;;;23.61;54.67;100798.66;5027591;28;20061;-37
2023/07/29 09:48:56;;;;;;;3.00;1.55;;;;;;;23.62;54.07;100802.19;5024688;28;20050;-36
2023/07/29 09:51:24;;;;;;;3.35;1.60;;;;;;;23.63;54.21;100804.69;5029459;28;20111;-37
2023/07/29 09:53:52;;;;;;;3.35;1.55;;;;;;;23.63;54.30;100814.69;5027641;28;20041;-36
2023/07/29 09:56:25;;;;;;;2.80;1.88;;;;;;;23.63;54.25;100820.94;5026960;28;20051;-36
2023/07/29 09:58:52;;;;;;;4.22;1.95;;;;;;;23.63;54.18;100817.38;5026176;28;20054;-36
2023/07/29 10:01:19;;;;;;;3.70;1.50;;;;;;;23.64;54.20;100814.50;5031208;28;20058;-38
2023/07/29 10:03:47;;;;;;;3.40;1.88;;;;;;;23.63;54.27;100815.50;5028392;28;20053;-37
2023/07/29 10:06:15;;;;;;;5.57;1.45;;;;;;;23.62;54.25;100816.56;5028196;28;20369;-37
2023/07/29 10:08:43;;;;;;;3.78;1.60;;;;;;;23.62;53.81;100816.56;5030988;28;20053;-36
2023/07/29 10:11:11;;;;;;;3.60;1.70;;;;;;;23.60;53.86;100810.50;5026274;28;20053;-34
2023/07/29 10:13:38;;;;;;;6.10;1.75;;;;;;;23.61;54.49;100809.47;5026800;28;20045;-33
2023/07/29 10:16:05;;;;;;;3.40;1.60;;;;;;;23.62;54.17;100805.72;5031394;28;20049;-34
2023/07/29 10:18:33;;;;;;;5.07;1.88;;;;;;;23.64;54.21;100808.25;5030312;28;20103;-34
2023/07/29 10:21:01;;;;;;;3.80;1.80;;;;;;;23.65;54.33;100807.22;5029426;28;20104;-35
2023/07/29 10:23:33;;;;;;;4.10;1.55;;;;;;;23.66;53.93;100813.50;5029368;28;20048;-35
2023/07/29 10:26:05;;;;;;;11.55;2.03;;;;;;;23.67;53.82;100807.06;5029996;28;20041;-35
2023/07/29 10:28:34;;;;;;;5.20;1.65;;;;;;;23.66;54.53;100817.03;5030079;28;20107;-35
2023/07/29 10:31:03;;;;;;;3.63;1.85;;;;;;;23.67;53.71;100804.34;5029401;28;20053;-34
2023/07/29 10:33:32;;;;;;;3.75;2.00;;;;;;;23.67;54.00;100797.06;5025587;28;20072;-33
2023/07/29 10:36:00;;;;;;;4.80;1.90;;;;;;;23.68;54.75;100797.91;5037717;28;20068;-34
2023/07/29 10:38:27;;;;;;;3.45;1.48;;;;;;;23.69;54.64;100810.41;5029182;28;20049;-34
2023/07/29 10:41:00;;;;;;;5.15;2.10;;;;;;;23.70;54.47;100801.25;5028139;28;20057;-35
2023/07/29 10:43:38;;;;;;;5.00;2.20;;;;;;;23.71;54.01;100805.63;5029808;28;20053;-34
2023/07/29 10:46:34;;;;;;;4.85;1.90;;;;;;;23.70;54.60;100812.09;5027655;28;20795;-34
2023/07/29 10:49:01;;;;;;;3.58;1.60;;;;;;;23.72;54.22;100810.00;5029487;28;20104;-35
2023/07/29 10:51:32;;;;;;;5.88;2.10;;;;;;;23.72;54.37;100815.41;5029376;28;20434;-34
2023/07/29 10:54:14;;;;;;;4.05;1.77;;;;;;;23.71;54.80;100814.59;5027546;28;20129;-34
2023/07/29 10:56:42;;;;;;;3.22;1.70;;;;;;;23.71;54.67;100801.06;5027067;28;20123;-34
2023/07/29 10:59:12;;;;;;;4.35;1.45;;;;;;;23.71;54.50;100809.19;5027226;28;20088;-34
2023/07/29 11:01:42;;;;;;;5.00;1.73;;;;;;;23.72;54.62;100812.72;5031972;28;20076;-34
2023/07/29 11:04:26;;;;;;;4.43;1.73;;;;;;;23.71;54.19;100813.75;5030468;28;20055;-35
2023/07/29 11:07:09;;;;;;;3.92;1.95;;;;;;;23.70;54.32;100806.69;5029700;28;20049;-35
2023/07/29 11:09:42;;;;;;;4.78;1.67;;;;;;;23.68;54.56;100809.59;5031566;28;20053;-34
2023/07/29 11:12:51;;;;;;;3.92;1.42;;;;;;;23.65;54.52;100812.63;5031844;28;20444;-34
2023/07/29 11:15:21;;;;;;;7.47;1.85;;;;;;;23.67;53.93;100828.69;5031858;28;20041;-35
2023/07/29 11:17:50;;;;;;;3.13;1.42;;;;;;;23.64;53.99;100829.91;5030440;28;20091;-36
2023/07/29 11:20:19;;;;;;;4.60;1.67;;;;;;;23.61;54.22;100836.53;5031745;28;20049;-37
2023/07/29 11:22:46;;;;;;;5.20;1.85;;;;;;;23.60;54.75;100825.91;5031953;28;20085;-35
2023/07/29 11:25:16;;;;;;;3.75;1.60;;;;;;;23.57;54.48;100824.41;5029638;28;20346;-35
2023/07/29 11:27:43;;;;;;;2.25;1.15;;;;;;;23.58;54.59;100819.84;5030202;28;20081;-34